CYYUCYMO

Guest
Details From CYYU - KAPUSKASING
To CYMO - MOOSONEE
Flight Number -
Tags generated
Created
Modified
Stats Distance 135 nm / 250 km
Max Altitude 3,000 ft / 914 m
Waypoints 4
Social Downloads 0
Likes 0
Share VATSIM

Download

Looking for another format? Having issues loading an existing format? Contact us
Advertisement - Login to hide

Notes

Basic altitude profile: - Ascent Rate: 2500ft/min - Ascent Speed: 250kts - Cruise Altitude: 8000ft - Cruise Speed: 420kts - Descent Rate: 1500ft/min - Descent Speed: 250kts Options: - Use NATs: yes - Use PACOTS: yes - Use low airways: yes - Use high airways: yes

Route

CYYU YYU V4 YMO CYMO

ID Type Via Altitude Latitude Longitude Leg Dist Tot Dist Heading (true) Name
O CYYU APT - 0 ft / 0 m 49.41417˚ -82.46743˚ - 0 nm - KAPUSKASING
YYU NDB - 1,200 ft / 366 m 49.46458˚ -82.50583˚ 3 nm 3 nm 334° / 334° KAPUSKASING NDB
YMO VOR V4 (AWY-LO) 3,000 ft / 914 m 51.29147˚ -80.60728˚ 131 nm 134 nm 33° / 34° MOOSONEE VOR-DME
O CYMO APT - 0 ft / 0 m 51.29210˚ -80.60828˚ 0 nm 135 nm 315° / 315° MOOSONEE

Altitude Profile

Advertisement - Login to hide

CYYU

Details ICAO CYYU (YYU)
Name KAPUSKASING
Region Canada
Timezone America/Toronto (UTC-5.0)
Stats Elevation 743 ft / 226 m (AMSL)
Location 49.414166° -82.467431°
Runways 2
Magnetic Variation 9.931° W

METAR

CYYU 121400Z 36009KT 6SM -SN DRSN OVC014 M21/M24 A2997 RMK SC8 SLP175

Decode

TAF

TAF CYYU 121338Z 1214/1302 36010G20KT 3SM -SN OVC015 TEMPO 1214/1221 6SM -SN OVC030 FM122100 35010KT P6SM SCT015 TEMPO 1221/1302 BKN015 BECMG 1222/1224 35008KT RMK NXT FCST BY 122000Z

Decode

Departure Runways

ID Width Length Bearing (true) Bearing (mag) Surface Threshold Offset Overrun Length
10 75 ft / 23 m 3,759 ft / 1,146 m 89.99° 99.92° Asphalt 200 ft / 61 m 0 ft / 0 m
17 100 ft / 30 m 5,542 ft / 1,689 m 156.13° 166.06° Asphalt 0 ft / 0 m 0 ft / 0 m
28 75 ft / 23 m 3,759 ft / 1,146 m 270.01° 279.94° Asphalt 0 ft / 0 m 0 ft / 0 m
35 100 ft / 30 m 5,542 ft / 1,689 m 336.14° 346.07° Asphalt 0 ft / 0 m 0 ft / 0 m

CYMO

Details ICAO CYMO (YMO)
Name MOOSONEE
Region Canada
Timezone America/Toronto (UTC-5.0)
Stats Elevation 30 ft / 9 m (AMSL)
Location 51.292095° -80.608276°
Runways 2
Magnetic Variation 12.114° W

METAR

CYMO 121400Z AUTO 34003KT 280V360 9SM OVC022 M19/M20 A3003 RMK SLP172

Decode

TAF

TAF TAF CYMO 121146Z 1212/1224 32007KT P6SM BKN030 TEMPO 1212/1224 5SM -SN BKN020 RMK FCST BASED ON AUTO OBS. NXT FCST BY 121800Z

Decode

Destination Runways

ID Width Length Bearing (true) Bearing (mag) Surface Threshold Offset Overrun Length
06 100 ft / 30 m 4,004 ft / 1,220 m 43.12° 55.23° Asphalt 0 ft / 0 m 0 ft / 0 m
14 100 ft / 30 m 3,508 ft / 1,069 m 127.35° 139.46° Dirt 0 ft / 0 m 0 ft / 0 m
24 100 ft / 30 m 4,004 ft / 1,220 m 223.13° 235.24° Asphalt 0 ft / 0 m 0 ft / 0 m
32 100 ft / 30 m 3,508 ft / 1,069 m 307.35° 319.46° Dirt 0 ft / 0 m 0 ft / 0 m